SAS73E ESSA-LIRF
Flight info
| Callsign | SAS73E |
|---|---|
| Flight time | N/A |
| Altitude | 37000 |
| Route | BABAP T316 NEPVA DCT ROGMI DCT PENOR/N0449F380 DCT RASAN DCT OBEDI/N0451F390 DCT CHI DCT EKTUK DCT GAVRA DCT RITEB |
| Aircraft | A339/H-SADE1E2E3GHIJ3J5M1P2RWXY/LB2D1 |
Departure
| Time | 2026-05-01 14:48 |
|---|---|
| Airport | Stockholm-Arlanda Airport (ESSA) |
Arrival
| Time | N/A |
|---|---|
| Airport | Rome–Fiumicino Leonardo da Vinci International Airport (LIRF) |
| Time | Latitude | Longitude | Altitude | Speed | Heading |
|---|---|---|---|---|---|
| 2026-05-01 14:18 | 59.65476 | 17.93756 | 118 ft | 0 kts | 248° |
| 2026-05-01 14:37 | 59.65477 | 17.93759 | 117 ft | 3 kts | 248° |
| 2026-05-01 14:38 | 59.65486 | 17.93808 | 116 ft | 4 kts | 250° |
| 2026-05-01 14:38 | 59.65494 | 17.93850 | 113 ft | 2 kts | 267° |
| 2026-05-01 14:38 | 59.65496 | 17.93874 | 114 ft | 2 kts | 300° |
| 2026-05-01 14:38 | 59.65490 | 17.93894 | 114 ft | 2 kts | 325° |
| 2026-05-01 14:39 | 59.65481 | 17.93907 | 114 ft | 2 kts | 336° |
| 2026-05-01 14:39 | 59.65473 | 17.93914 | 114 ft | 0 kts | 341° |
| 2026-05-01 14:41 | 59.65483 | 17.93908 | 114 ft | 7 kts | 341° |
| 2026-05-01 14:41 | 59.65555 | 17.93870 | 117 ft | 12 kts | 349° |
| 2026-05-01 14:42 | 59.65617 | 17.93936 | 119 ft | 9 kts | 58° |
| 2026-05-01 14:42 | 59.65629 | 17.94058 | 126 ft | 10 kts | 78° |
| 2026-05-01 14:42 | 59.65650 | 17.94238 | 127 ft | 19 kts | 76° |
| 2026-05-01 14:42 | 59.65684 | 17.94510 | 128 ft | 22 kts | 76° |
| 2026-05-01 14:43 | 59.65722 | 17.94808 | 126 ft | 23 kts | 76° |
| 2026-05-01 14:43 | 59.65746 | 17.95073 | 132 ft | 18 kts | 100° |
| 2026-05-01 14:43 | 59.65656 | 17.95192 | 133 ft | 17 kts | 165° |
| 2026-05-01 14:43 | 59.65525 | 17.95261 | 132 ft | 21 kts | 165° |
| 2026-05-01 14:44 | 59.65387 | 17.95332 | 129 ft | 21 kts | 164° |
| 2026-05-01 14:44 | 59.65078 | 17.95496 | 119 ft | 26 kts | 166° |
| 2026-05-01 14:44 | 59.64950 | 17.95672 | 113 ft | 20 kts | 96° |
| 2026-05-01 14:45 | 59.64904 | 17.95843 | 108 ft | 16 kts | 145° |
| 2026-05-01 14:45 | 59.64757 | 17.95847 | 111 ft | 0 kts | 189° |
| 2026-05-01 14:47 | 59.64577 | 17.95780 | 112 ft | 68 kts | 191° |
| 2026-05-01 14:47 | 59.63851 | 17.95518 | 118 ft | 141 kts | 190° |
| 2026-05-01 14:47 | 59.62761 | 17.95109 | 517 ft | 168 kts | 195° |
| 2026-05-01 14:48 | 59.60319 | 17.94217 | 1955 ft | 194 kts | 194° |
| 2026-05-01 14:48 | 59.58899 | 17.93921 | 2449 ft | 216 kts | 181° |
| 2026-05-01 14:48 | 59.56122 | 17.96714 | 3897 ft | 243 kts | 130° |
| 2026-05-01 14:49 | 59.55426 | 18.03144 | 5369 ft | 245 kts | 70° |
| 2026-05-01 14:49 | 59.57516 | 18.08031 | 6811 ft | 237 kts | 25° |
| 2026-05-01 14:50 | 59.59410 | 18.10346 | 7782 ft | 237 kts | 28° |
| 2026-05-01 14:50 | 59.62678 | 18.16251 | 9805 ft | 251 kts | 53° |
| 2026-05-01 14:51 | 59.63378 | 18.19519 | 10222 ft | 272 kts | 77° |
| 2026-05-01 14:51 | 59.62431 | 18.27138 | 10617 ft | 316 kts | 129° |
| 2026-05-01 14:52 | 59.59048 | 18.33407 | 11003 ft | 353 kts | 140° |
| 2026-05-01 14:52 | 59.57227 | 18.36842 | 11253 ft | 368 kts | 136° |
| 2026-05-01 14:52 | 59.53733 | 18.44404 | 12382 ft | 377 kts | 132° |
| 2026-05-01 14:53 | 59.52008 | 18.48345 | 12955 ft | 381 kts | 132° |
| 2026-05-01 14:53 | 59.50288 | 18.52303 | 13544 ft | 385 kts | 132° |
| 2026-05-01 14:53 | 59.48531 | 18.56334 | 14084 ft | 389 kts | 132° |
| 2026-05-01 14:53 | 59.46751 | 18.60403 | 14626 ft | 392 kts | 132° |
| 2026-05-01 14:54 | 59.44950 | 18.64454 | 15119 ft | 394 kts | 135° |
| 2026-05-01 14:54 | 59.42781 | 18.67707 | 15620 ft | 393 kts | 155° |
| 2026-05-01 14:54 | 59.40226 | 18.69472 | 16128 ft | 388 kts | 174° |
| 2026-05-01 14:54 | 59.37564 | 18.69586 | 16647 ft | 380 kts | 194° |
| 2026-05-01 14:55 | 59.35076 | 18.68229 | 17158 ft | 374 kts | 207° |
| 2026-05-01 14:55 | 59.32653 | 18.66323 | 17642 ft | 377 kts | 208° |
| 2026-05-01 14:55 | 59.30186 | 18.64470 | 18172 ft | 381 kts | 206° |
| 2026-05-01 14:55 | 59.27656 | 18.62803 | 18657 ft | 385 kts | 203° |
| 2026-05-01 14:56 | 59.25920 | 18.61912 | 18947 ft | 391 kts | 197° |
| 2026-05-01 14:56 | 59.23187 | 18.61242 | 19430 ft | 398 kts | 189° |
| 2026-05-01 14:56 | 59.20416 | 18.60853 | 19879 ft | 401 kts | 189° |
| 2026-05-01 14:56 | 59.17623 | 18.60452 | 20339 ft | 404 kts | 189° |
| 2026-05-01 14:57 | 59.14822 | 18.60031 | 20800 ft | 407 kts | 189° |
| 2026-05-01 14:57 | 59.09115 | 18.59144 | 21737 ft | 412 kts | 189° |
| 2026-05-01 14:57 | 59.06284 | 18.58699 | 22208 ft | 415 kts | 189° |
| 2026-05-01 14:58 | 59.03390 | 18.58246 | 22665 ft | 418 kts | 189° |
| 2026-05-01 14:58 | 59.00481 | 18.57792 | 23141 ft | 421 kts | 189° |
| 2026-05-01 14:58 | 58.97543 | 18.57334 | 23605 ft | 424 kts | 189° |
| 2026-05-01 14:58 | 58.94582 | 18.56765 | 24003 ft | 424 kts | 194° |
| 2026-05-01 14:59 | 58.91704 | 18.55483 | 24382 ft | 424 kts | 199° |
| 2026-05-01 14:59 | 58.88856 | 18.54150 | 24792 ft | 427 kts | 198° |
| 2026-05-01 14:59 | 58.85949 | 18.52804 | 25201 ft | 429 kts | 198° |
| 2026-05-01 14:59 | 58.83027 | 18.51453 | 25605 ft | 432 kts | 198° |
| 2026-05-01 15:00 | 58.77185 | 18.48752 | 26394 ft | 437 kts | 198° |
| 2026-05-01 15:00 | 58.74224 | 18.47383 | 26779 ft | 439 kts | 198° |
| 2026-05-01 15:00 | 58.71227 | 18.46000 | 27178 ft | 442 kts | 198° |
| 2026-05-01 15:01 | 58.68226 | 18.44619 | 27558 ft | 444 kts | 198° |
| 2026-05-01 15:01 | 58.65209 | 18.43234 | 27934 ft | 447 kts | 198° |
| 2026-05-01 15:01 | 58.62178 | 18.41845 | 28312 ft | 449 kts | 197° |
| 2026-05-01 15:01 | 58.59129 | 18.40451 | 28677 ft | 451 kts | 197° |
| 2026-05-01 15:02 | 58.56068 | 18.39054 | 29041 ft | 454 kts | 197° |
| 2026-05-01 15:02 | 58.54030 | 18.38125 | 29276 ft | 455 kts | 197° |
| 2026-05-01 15:02 | 58.49892 | 18.36241 | 29760 ft | 458 kts | 197° |
| 2026-05-01 15:02 | 58.46819 | 18.34846 | 30104 ft | 461 kts | 197° |
| 2026-05-01 15:03 | 58.43689 | 18.33428 | 30431 ft | 463 kts | 197° |
| 2026-05-01 15:03 | 58.40529 | 18.31998 | 30744 ft | 465 kts | 197° |
| 2026-05-01 15:03 | 58.37364 | 18.30569 | 31063 ft | 467 kts | 197° |
| 2026-05-01 15:03 | 58.34224 | 18.29153 | 31371 ft | 470 kts | 197° |
| 2026-05-01 15:04 | 58.31031 | 18.27717 | 31674 ft | 472 kts | 197° |
| 2026-05-01 15:04 | 58.27813 | 18.26271 | 31970 ft | 474 kts | 197° |
| 2026-05-01 15:04 | 58.24592 | 18.24827 | 32262 ft | 477 kts | 197° |
| 2026-05-01 15:04 | 58.21341 | 18.23372 | 32574 ft | 479 kts | 197° |
| 2026-05-01 15:05 | 58.18088 | 18.21920 | 32815 ft | 481 kts | 197° |
| 2026-05-01 15:05 | 58.14859 | 18.20480 | 33052 ft | 483 kts | 197° |
| 2026-05-01 15:05 | 58.11577 | 18.19020 | 33255 ft | 485 kts | 197° |
| 2026-05-01 15:05 | 58.08280 | 18.17556 | 33444 ft | 486 kts | 196° |
| 2026-05-01 15:06 | 58.04975 | 18.16091 | 33614 ft | 488 kts | 196° |
| 2026-05-01 15:06 | 58.01663 | 18.14625 | 33799 ft | 488 kts | 196° |
| 2026-05-01 15:06 | 57.98395 | 18.13182 | 34021 ft | 488 kts | 196° |
| 2026-05-01 15:06 | 57.95080 | 18.11721 | 34229 ft | 488 kts | 196° |
| 2026-05-01 15:07 | 57.91766 | 18.10264 | 34431 ft | 487 kts | 196° |
| 2026-05-01 15:07 | 57.88459 | 18.08811 | 34614 ft | 487 kts | 196° |
| 2026-05-01 15:07 | 57.85151 | 18.07361 | 34801 ft | 487 kts | 196° |
| 2026-05-01 15:07 | 57.81894 | 18.05935 | 34971 ft | 487 kts | 196° |
| 2026-05-01 15:08 | 57.78591 | 18.04492 | 35152 ft | 487 kts | 196° |
| 2026-05-01 15:08 | 57.75286 | 18.03051 | 35330 ft | 487 kts | 196° |
| 2026-05-01 15:08 | 57.71975 | 18.01611 | 35503 ft | 487 kts | 195° |
| 2026-05-01 15:08 | 57.68676 | 18.00177 | 35679 ft | 487 kts | 195° |
| 2026-05-01 15:09 | 57.65373 | 17.98745 | 35849 ft | 487 kts | 195° |
| 2026-05-01 15:09 | 57.62069 | 17.97315 | 36023 ft | 487 kts | 195° |
| 2026-05-01 15:09 | 57.58807 | 17.95907 | 36191 ft | 486 kts | 195° |
| 2026-05-01 15:09 | 57.55515 | 17.94487 | 36347 ft | 486 kts | 195° |
| 2026-05-01 15:10 | 57.52209 | 17.93065 | 36539 ft | 486 kts | 195° |
| 2026-05-01 15:10 | 57.45615 | 17.90235 | 36869 ft | 486 kts | 195° |
| 2026-05-01 15:10 | 57.42309 | 17.88820 | 37037 ft | 486 kts | 195° |
| 2026-05-01 15:11 | 57.39018 | 17.87414 | 37210 ft | 486 kts | 195° |
| 2026-05-01 15:11 | 57.32433 | 17.84610 | 37245 ft | 484 kts | 195° |
| 2026-05-01 15:12 | 57.25895 | 17.81835 | 37241 ft | 484 kts | 194° |
| 2026-05-01 15:12 | 57.16038 | 17.77670 | 37245 ft | 484 kts | 194° |
| 2026-05-01 15:14 | 56.99629 | 17.70788 | 37248 ft | 484 kts | 194° |
| 2026-05-01 15:14 | 56.89759 | 17.66678 | 37248 ft | 484 kts | 194° |
| 2026-05-01 15:15 | 56.76676 | 17.61264 | 37250 ft | 483 kts | 194° |
| 2026-05-01 15:16 | 56.63528 | 17.55863 | 37258 ft | 483 kts | 194° |
| 2026-05-01 15:18 | 56.47109 | 17.49171 | 37264 ft | 483 kts | 193° |
| 2026-05-01 15:19 | 56.33990 | 17.43867 | 37266 ft | 483 kts | 193° |
| 2026-05-01 15:19 | 56.24175 | 17.39924 | 37273 ft | 483 kts | 193° |
| 2026-05-01 15:20 | 56.14294 | 17.35974 | 37279 ft | 483 kts | 193° |
| 2026-05-01 15:21 | 56.07764 | 17.33376 | 37279 ft | 483 kts | 193° |
| 2026-05-01 15:21 | 56.01189 | 17.30768 | 37283 ft | 483 kts | 193° |
| 2026-05-01 15:22 | 55.91367 | 17.26890 | 37291 ft | 483 kts | 193° |
| 2026-05-01 15:22 | 55.84786 | 17.24303 | 37295 ft | 483 kts | 193° |
| 2026-05-01 15:23 | 55.78208 | 17.21727 | 37292 ft | 483 kts | 193° |
| 2026-05-01 15:23 | 55.71680 | 17.19177 | 37302 ft | 483 kts | 193° |
| 2026-05-01 15:24 | 55.65108 | 17.16616 | 37302 ft | 483 kts | 193° |
| 2026-05-01 15:24 | 55.58626 | 17.13751 | 37306 ft | 482 kts | 197° |
| 2026-05-01 15:25 | 55.52181 | 17.10393 | 37308 ft | 482 kts | 197° |
| 2026-05-01 15:25 | 55.45722 | 17.07115 | 37308 ft | 482 kts | 196° |
| 2026-05-01 15:26 | 55.39251 | 17.03899 | 37315 ft | 482 kts | 196° |
| 2026-05-01 15:26 | 55.32816 | 17.00722 | 37321 ft | 483 kts | 196° |
| 2026-05-01 15:27 | 55.26346 | 16.97541 | 37325 ft | 483 kts | 196° |
| 2026-05-01 15:28 | 55.16625 | 16.92782 | 37326 ft | 483 kts | 196° |
| 2026-05-01 15:28 | 55.10143 | 16.89621 | 37334 ft | 483 kts | 196° |
| 2026-05-01 15:29 | 55.00462 | 16.84922 | 37339 ft | 483 kts | 196° |
| 2026-05-01 15:30 | 54.87470 | 16.78651 | 37346 ft | 484 kts | 196° |
| 2026-05-01 15:31 | 54.68044 | 16.69354 | 37353 ft | 484 kts | 195° |
| 2026-05-01 15:32 | 54.55057 | 16.63189 | 37359 ft | 485 kts | 195° |
| 2026-05-01 15:34 | 54.35456 | 16.53962 | 37367 ft | 487 kts | 195° |